Time,TemperatureF,DewpointF,PressureIn,WindDirection,WindDirectionDegrees,WindSpeedMPH,WindSpeedGustMPH,Humidity,HourlyPrecipIn,Conditions,Clouds,dailyrainin,SoftwareType,DateUTC
2013-01-23 00:00:00,45.0,40.2,30.28,NNW,346,0.0,0.0,83,0.00,,---,0.00,VWS V14.00,2013-01-23 05:00:00,
2013-01-23 00:01:00,45.0,40.2,30.29,NNW,346,0.0,0.0,83,0.00,,---,0.00,VWS V14.00,2013-01-23 05:01:00,
2013-01-23 00:02:00,45.0,40.2,30.29,NNW,346,0.0,0.0,83,0.00,,---,0.00,VWS V14.00,2013-01-23 05:02:00,
2013-01-23 00:03:00,45.0,40.2,30.29,NNW,346,0.0,0.0,83,0.00,,---,0.00,VWS V14.00,2013-01-23 05:03:00,
2013-01-23 00:08:00,44.9,40.1,30.29,NNW,346,0.0,0.0,83,0.00,,---,0.00,VWS V14.00,2013-01-23 05:08:00,
2013-01-23 00:13:00,44.8,40.3,30.29,NNW,346,0.0,0.0,84,0.00,,---,0.00,VWS V14.00,2013-01-23 05:13:00,
2013-01-23 00:18:00,44.8,40.3,30.29,NNW,346,0.0,0.0,84,0.00,,---,0.00,VWS V14.00,2013-01-23 05:18:00,
2013-01-23 00:23:00,44.8,40.3,30.29,NNW,346,0.0,0.0,84,0.00,,---,0.00,VWS V14.00,2013-01-23 05:23:00,
2013-01-23 00:28:00,44.8,40.3,30.29,NNW,346,0.0,0.0,84,0.00,,---,0.00,VWS V14.00,2013-01-23 05:28:00,
2013-01-23 00:30:00,43.8,39.9,30.29,NNW,346,0.0,0.0,86,0.00,,---,0.00,VWS V14.00,2013-01-23 05:30:00,
2013-01-23 00:34:00,44.7,40.5,30.29,NNW,346,0.0,0.0,85,0.00,,---,0.00,VWS V14.00,2013-01-23 05:34:00,
2013-01-23 00:39:00,44.7,40.5,30.29,NNW,346,0.0,0.0,85,0.00,,---,0.00,VWS V14.00,2013-01-23 05:39:00,
2013-01-23 00:44:00,44.7,40.5,30.29,NNW,346,0.0,0.0,85,0.00,,---,0.00,VWS V14.00,2013-01-23 05:44:00,
2013-01-23 00:49:00,44.7,40.5,30.29,NNW,346,0.0,0.0,85,0.00,,---,0.00,VWS V14.00,2013-01-23 05:49:00,
2013-01-23 00:54:00,44.6,40.4,30.29,NNW,346,0.0,0.0,85,0.00,,---,0.00,VWS V14.00,2013-01-23 05:54:00,
2013-01-23 00:59:00,44.5,40.6,30.29,NNW,346,0.0,0.0,86,0.00,,---,0.00,VWS V14.00,2013-01-23 05:59:00,
2013-01-23 01:00:00,43.4,40.1,30.29,NNW,346,0.0,0.0,88,0.00,,---,0.00,VWS V14.00,2013-01-23 06:00:00,
2013-01-23 01:05:00,44.3,40.4,30.29,NNW,346,0.0,0.0,86,0.00,,---,0.00,VWS V14.00,2013-01-23 06:05:00,
2013-01-23 01:10:00,44.2,40.3,30.29,NNW,346,0.0,0.0,86,0.00,,---,0.00,VWS V14.00,2013-01-23 06:10:00,
2013-01-23 01:15:00,44.1,40.2,30.29,NNW,346,0.0,0.0,86,0.00,,---,0.00,VWS V14.00,2013-01-23 06:15:00,
2013-01-23 01:20:00,44.0,40.1,30.30,NNW,346,0.0,0.0,86,0.00,,---,0.00,VWS V14.00,2013-01-23 06:20:00,
2013-01-23 01:25:00,44.0,40.1,30.29,NNW,346,0.0,0.0,86,0.00,,---,0.00,VWS V14.00,2013-01-23 06:25:00,
2013-01-23 01:30:00,43.8,39.9,30.29,NNW,346,0.0,0.0,86,0.00,,---,0.00,VWS V14.00,2013-01-23 06:30:00,
2013-01-23 01:36:00,43.7,39.8,30.29,NNW,346,0.0,0.0,86,0.00,,---,0.00,VWS V14.00,2013-01-23 06:36:00,
2013-01-23 01:41:00,43.6,40.0,30.29,NNW,346,0.0,0.0,87,0.00,,---,0.00,VWS V14.00,2013-01-23 06:41:00,
2013-01-23 01:46:00,43.5,39.9,30.29,NNW,346,0.0,0.0,87,0.00,,---,0.00,VWS V14.00,2013-01-23 06:46:00,
2013-01-23 01:51:00,43.4,39.8,30.29,NNW,346,0.0,0.0,87,0.00,,---,0.00,VWS V14.00,2013-01-23 06:51:00,
2013-01-23 01:57:00,43.4,39.8,30.29,NNW,346,0.0,0.0,87,0.00,,---,0.00,VWS V14.00,2013-01-23 06:57:00,
2013-01-23 02:00:00,42.5,39.2,30.30,NNW,346,0.0,0.0,88,0.00,,---,0.00,VWS V14.00,2013-01-23 07:00:00,
2013-01-23 02:02:00,43.4,40.1,30.29,NNW,346,0.0,0.0,88,0.00,,---,0.00,VWS V14.00,2013-01-23 07:02:00,
2013-01-23 02:07:00,43.4,40.1,30.29,NNW,346,0.0,0.0,88,0.00,,---,0.00,VWS V14.00,2013-01-23 07:07:00,
2013-01-23 02:12:00,43.3,40.0,30.29,NNW,346,0.0,0.0,88,0.00,,---,0.00,VWS V14.00,2013-01-23 07:12:00,
2013-01-23 02:17:00,43.2,39.9,30.29,NNW,346,0.0,0.0,88,0.00,,---,0.00,VWS V14.00,2013-01-23 07:17:00,
2013-01-23 02:22:00,43.1,39.8,30.29,NNW,346,0.0,0.0,88,0.00,,---,0.00,VWS V14.00,2013-01-23 07:22:00,
2013-01-23 02:28:00,42.9,39.6,30.29,NNW,346,0.0,0.0,88,0.00,,---,0.00,VWS V14.00,2013-01-23 07:28:00,
2013-01-23 02:30:00,43.3,38.5,30.30,NNW,346,0.0,0.0,83,0.00,,---,0.00,VWS V14.00,2013-01-23 07:30:00,
2013-01-23 02:33:00,42.9,39.6,30.29,NNW,346,0.0,0.0,88,0.00,,---,0.00,VWS V14.00,2013-01-23 07:33:00,
2013-01-23 02:38:00,42.7,39.4,30.29,NNW,346,0.0,0.0,88,0.00,,---,0.00,VWS V14.00,2013-01-23 07:38:00,
2013-01-23 02:44:00,42.6,39.3,30.29,NNW,346,0.0,0.0,88,0.00,,---,0.00,VWS V14.00,2013-01-23 07:44:00,
2013-01-23 02:49:00,42.6,39.3,30.30,NNW,346,0.0,0.0,88,0.00,,---,0.00,VWS V14.00,2013-01-23 07:49:00,
2013-01-23 02:54:00,42.5,39.2,30.30,NNW,346,0.0,0.0,88,0.00,,---,0.00,VWS V14.00,2013-01-23 07:54:00,
2013-01-23 02:59:00,42.5,39.2,30.30,NNW,346,0.0,0.0,88,0.00,,---,0.00,VWS V14.00,2013-01-23 07:59:00,
2013-01-23 03:00:00,43.4,38.0,30.31,NNW,346,0.0,1.0,81,0.00,,---,0.00,VWS V14.00,2013-01-23 08:00:00,
2013-01-23 03:04:00,42.5,38.9,30.30,NNW,346,0.0,0.0,87,0.00,,---,0.00,VWS V14.00,2013-01-23 08:04:00,
2013-01-23 03:09:00,42.6,38.7,30.30,NNW,346,0.0,0.0,86,0.00,,---,0.00,VWS V14.00,2013-01-23 08:09:00,
2013-01-23 03:14:00,42.8,38.6,30.30,NNW,346,0.0,0.0,85,0.00,,---,0.00,VWS V14.00,2013-01-23 08:14:00,
2013-01-23 03:19:00,43.0,38.5,30.30,NNW,346,0.0,0.0,84,0.00,,---,0.00,VWS V14.00,2013-01-23 08:19:00,
2013-01-23 03:25:00,43.2,38.4,30.30,NNW,346,0.0,0.0,83,0.00,,---,0.00,VWS V14.00,2013-01-23 08:25:00,
2013-01-23 03:30:00,43.3,38.5,30.30,NNW,346,0.0,0.0,83,0.00,,---,0.00,VWS V14.00,2013-01-23 08:30:00,
2013-01-23 03:35:00,43.2,38.1,30.31,NNW,346,0.0,0.0,82,0.00,,---,0.00,VWS V14.00,2013-01-23 08:35:00,
2013-01-23 03:40:00,43.1,38.0,30.31,NNW,346,0.0,0.0,82,0.00,,---,0.00,VWS V14.00,2013-01-23 08:40:00,
2013-01-23 03:45:00,43.0,37.9,30.31,NNW,346,0.0,0.0,82,0.00,,---,0.00,VWS V14.00,2013-01-23 08:45:00,
2013-01-23 03:51:00,43.0,37.9,30.31,NNW,346,0.0,0.0,82,0.00,,---,0.00,VWS V14.00,2013-01-23 08:51:00,
2013-01-23 03:56:00,43.1,37.7,30.31,NNW,346,0.0,1.0,81,0.00,,---,0.00,VWS V14.00,2013-01-23 08:56:00,
2013-01-23 04:00:00,44.0,36.9,30.32,NNW,346,0.0,2.0,76,0.00,,---,0.00,VWS V14.00,2013-01-23 09:00:00,
2013-01-23 04:01:00,43.4,37.7,30.31,NNW,346,0.0,0.0,80,0.00,,---,0.00,VWS V14.00,2013-01-23 09:01:00,
2013-01-23 04:06:00,43.7,38.0,30.31,NNW,346,0.0,0.0,80,0.00,,---,0.00,VWS V14.00,2013-01-23 09:06:00,
2013-01-23 04:11:00,43.9,38.1,30.32,NNW,346,0.0,0.0,80,0.00,,---,0.00,VWS V14.00,2013-01-23 09:11:00,
2013-01-23 04:16:00,44.1,38.0,30.32,NNW,346,0.0,0.0,79,0.00,,---,0.00,VWS V14.00,2013-01-23 09:16:00,
2013-01-23 04:22:00,44.1,38.0,30.32,NNW,346,0.0,0.0,79,0.00,,---,0.00,VWS V14.00,2013-01-23 09:22:00,
2013-01-23 04:27:00,44.1,38.0,30.32,NNW,346,0.0,0.0,79,0.00,,---,0.00,VWS V14.00,2013-01-23 09:27:00,
2013-01-23 04:30:00,43.9,36.5,30.32,NNW,346,0.0,3.0,75,0.00,,---,0.00,VWS V14.00,2013-01-23 09:30:00,
2013-01-23 04:33:00,44.2,37.8,30.32,NNW,346,0.0,2.0,78,0.00,,---,0.00,VWS V14.00,2013-01-23 09:33:00,
2013-01-23 04:38:00,44.3,37.6,30.32,NNW,346,0.0,2.0,77,0.00,,---,0.00,VWS V14.00,2013-01-23 09:38:00,
2013-01-23 04:43:00,44.3,37.2,30.32,NNW,346,0.0,2.0,76,0.00,,---,0.00,VWS V14.00,2013-01-23 09:43:00,
2013-01-23 04:48:00,44.3,37.2,30.32,NNW,346,0.0,2.0,76,0.00,,---,0.00,VWS V14.00,2013-01-23 09:48:00,
2013-01-23 04:54:00,44.1,37.0,30.32,NNW,346,0.0,2.0,76,0.00,,---,0.00,VWS V14.00,2013-01-23 09:54:00,
2013-01-23 04:59:00,44.0,36.9,30.32,NNW,346,0.0,2.0,76,0.00,,---,0.00,VWS V14.00,2013-01-23 09:59:00,
2013-01-23 05:00:00,43.2,35.8,30.34,NNW,346,0.0,2.0,75,0.00,,---,0.00,VWS V14.00,2013-01-23 10:00:00,
2013-01-23 05:04:00,44.0,36.9,30.32,NNW,346,0.0,1.0,76,0.00,,---,0.00,VWS V14.00,2013-01-23 10:04:00,
2013-01-23 05:09:00,44.0,36.9,30.31,NNW,346,0.0,3.0,76,0.00,,---,0.00,VWS V14.00,2013-01-23 10:09:00,
2013-01-23 05:14:00,44.0,36.6,30.32,NNW,346,0.0,3.0,75,0.00,,---,0.00,VWS V14.00,2013-01-23 10:14:00,
2013-01-23 05:20:00,44.0,36.6,30.32,NNW,346,0.0,3.0,75,0.00,,---,0.00,VWS V14.00,2013-01-23 10:20:00,
2013-01-23 05:25:00,44.0,36.6,30.32,NNW,346,0.0,3.0,75,0.00,,---,0.00,VWS V14.00,2013-01-23 10:25:00,
2013-01-23 05:30:00,43.9,36.5,30.32,NNW,346,0.0,3.0,75,0.00,,---,0.00,VWS V14.00,2013-01-23 10:30:00,
2013-01-23 05:35:00,43.8,36.1,30.32,NNW,346,0.0,0.0,74,0.00,,---,0.00,VWS V14.00,2013-01-23 10:35:00,
2013-01-23 05:40:00,43.8,36.1,30.33,NNW,346,0.0,0.0,74,0.00,,---,0.00,VWS V14.00,2013-01-23 10:40:00,
2013-01-23 05:45:00,43.7,36.0,30.33,NNW,346,0.0,0.0,74,0.00,,---,0.00,VWS V14.00,2013-01-23 10:45:00,
2013-01-23 05:50:00,43.5,35.8,30.33,NNW,346,0.0,0.0,74,0.00,,---,0.00,VWS V14.00,2013-01-23 10:50:00,
2013-01-23 05:56:00,43.3,35.9,30.33,NNW,346,0.0,2.0,75,0.00,,---,0.00,VWS V14.00,2013-01-23 10:56:00,
2013-01-23 06:00:00,41.7,35.4,30.34,NNW,346,0.0,1.0,78,0.00,,---,0.00,VWS V14.00,2013-01-23 11:00:00,
2013-01-23 06:01:00,43.2,35.8,30.34,NNW,346,0.0,2.0,75,0.00,,---,0.00,VWS V14.00,2013-01-23 11:01:00,
2013-01-23 06:06:00,43.0,36.0,30.34,NNW,346,0.0,0.0,76,0.00,,---,0.00,VWS V14.00,2013-01-23 11:06:00,
2013-01-23 06:12:00,42.8,35.8,30.34,NNW,346,0.0,1.0,76,0.00,,---,0.00,VWS V14.00,2013-01-23 11:12:00,
2013-01-23 06:17:00,42.7,35.7,30.34,NNW,346,0.0,1.0,76,0.00,,---,0.00,VWS V14.00,2013-01-23 11:17:00,
2013-01-23 06:22:00,42.7,35.7,30.34,NNW,346,0.0,2.0,76,0.00,,---,0.00,VWS V14.00,2013-01-23 11:22:00,
2013-01-23 06:27:00,42.6,35.6,30.34,NNW,346,0.0,2.0,76,0.00,,---,0.00,VWS V14.00,2013-01-23 11:27:00,
2013-01-23 06:30:00,41.1,34.8,30.34,NNW,346,0.0,1.0,78,0.00,,---,0.00,VWS V14.00,2013-01-23 11:30:00,
2013-01-23 06:34:00,42.4,35.7,30.34,NNW,346,0.0,1.0,77,0.00,,---,0.00,VWS V14.00,2013-01-23 11:34:00,
2013-01-23 06:39:00,42.3,35.6,30.34,NNW,346,0.0,1.0,77,0.00,,---,0.00,VWS V14.00,2013-01-23 11:39:00,
2013-01-23 06:44:00,42.1,35.4,30.34,NNW,346,0.0,1.0,77,0.00,,---,0.00,VWS V14.00,2013-01-23 11:44:00,
2013-01-23 06:49:00,42.0,35.3,30.34,NNW,346,0.0,1.0,77,0.00,,---,0.00,VWS V14.00,2013-01-23 11:49:00,
2013-01-23 06:54:00,41.9,35.2,30.34,NNW,346,0.0,1.0,77,0.00,,---,0.00,VWS V14.00,2013-01-23 11:54:00,
2013-01-23 06:59:00,41.8,35.5,30.34,NNW,346,0.0,1.0,78,0.00,,---,0.00,VWS V14.00,2013-01-23 11:59:00,
2013-01-23 07:00:00,41.0,34.7,30.35,NNW,346,0.0,1.0,78,0.00,,---,0.00,VWS V14.00,2013-01-23 12:00:00,
2013-01-23 07:04:00,41.6,35.3,30.34,NNW,346,0.0,1.0,78,0.00,,---,0.00,VWS V14.00,2013-01-23 12:04:00,
2013-01-23 07:09:00,41.5,35.2,30.34,NNW,346,0.0,1.0,78,0.00,,---,0.00,VWS V14.00,2013-01-23 12:09:00,
2013-01-23 07:15:00,41.4,35.1,30.34,NNW,346,0.0,1.0,78,0.00,,---,0.00,VWS V14.00,2013-01-23 12:15:00,
2013-01-23 07:20:00,41.2,34.9,30.34,NNW,346,0.0,1.0,78,0.00,,---,0.00,VWS V14.00,2013-01-23 12:20:00,
2013-01-23 07:25:00,41.1,34.8,30.34,NNW,346,0.0,1.0,78,0.00,,---,0.00,VWS V14.00,2013-01-23 12:25:00,
2013-01-23 07:30:00,43.2,34.8,30.36,NNW,346,0.0,2.0,72,0.00,,---,0.00,VWS V14.00,2013-01-23 12:30:00,
2013-01-23 07:31:00,41.1,34.8,30.34,NNW,346,0.0,1.0,78,0.00,,---,0.00,VWS V14.00,2013-01-23 12:31:00,
2013-01-23 07:36:00,40.9,34.6,30.35,NNW,346,0.0,0.0,78,0.00,,---,0.00,VWS V14.00,2013-01-23 12:36:00,
2013-01-23 07:42:00,40.8,34.5,30.35,NNW,346,0.0,0.0,78,0.00,,---,0.00,VWS V14.00,2013-01-23 12:42:00,
2013-01-23 07:47:00,40.7,34.4,30.35,NNW,346,0.0,0.0,78,0.00,,---,0.00,VWS V14.00,2013-01-23 12:47:00,
2013-01-23 07:52:00,40.8,34.5,30.35,NNW,346,0.0,0.0,78,0.00,,---,0.00,VWS V14.00,2013-01-23 12:52:00,
2013-01-23 07:57:00,40.9,34.6,30.35,NNW,346,0.0,0.0,78,0.00,,---,0.00,VWS V14.00,2013-01-23 12:57:00,
2013-01-23 08:00:00,48.0,33.5,30.37,NNW,336,0.0,3.0,57,0.00,,---,0.00,VWS V14.00,2013-01-23 13:00:00,
2013-01-23 08:02:00,41.1,34.5,30.35,NNW,346,0.0,0.0,77,0.00,,---,0.00,VWS V14.00,2013-01-23 13:02:00,
2013-01-23 08:07:00,41.5,34.5,30.35,NNW,346,0.0,0.0,76,0.00,,---,0.00,VWS V14.00,2013-01-23 13:07:00,
2013-01-23 08:12:00,41.8,34.8,30.35,NNW,346,0.0,0.0,76,0.00,,---,0.00,VWS V14.00,2013-01-23 13:12:00,
2013-01-23 08:17:00,42.0,34.7,30.36,NNW,346,0.0,2.0,75,0.00,,---,0.00,VWS V14.00,2013-01-23 13:17:00,
2013-01-23 08:22:00,42.4,34.7,30.36,NNW,346,0.0,2.0,74,0.00,,---,0.00,VWS V14.00,2013-01-23 13:22:00,
2013-01-23 08:27:00,42.8,34.8,30.36,NNW,346,0.0,2.0,73,0.00,,---,0.00,VWS V14.00,2013-01-23 13:27:00,
2013-01-23 08:30:00,51.4,34.4,30.37,NNW,336,0.0,1.0,52,0.00,,---,0.00,VWS V14.00,2013-01-23 13:30:00,
2013-01-23 08:32:00,43.5,34.4,30.36,NNW,346,0.0,2.0,70,0.00,,---,0.00,VWS V14.00,2013-01-23 13:32:00,
2013-01-23 08:37:00,44.3,34.8,30.36,NNW,346,0.0,2.0,69,0.00,,---,0.00,VWS V14.00,2013-01-23 13:37:00,
2013-01-23 08:42:00,45.0,34.3,30.37,NNW,346,0.0,2.0,66,0.00,,---,0.00,VWS V14.00,2013-01-23 13:42:00,
2013-01-23 08:48:00,45.8,33.9,30.37,NNE,12,0.0,3.0,63,0.00,,---,0.00,VWS V14.00,2013-01-23 13:48:00,
2013-01-23 08:53:00,46.7,34.4,30.37,NNE,12,0.0,3.0,62,0.00,,---,0.00,VWS V14.00,2013-01-23 13:53:00,
2013-01-23 08:58:00,47.6,34.0,30.37,NNW,334,0.0,3.0,59,0.00,,---,0.00,VWS V14.00,2013-01-23 13:58:00,
2013-01-23 09:00:00,54.9,37.6,30.38,NNE,29,0.0,3.0,52,0.00,,---,0.00,VWS V14.00,2013-01-23 14:00:00,
2013-01-23 09:03:00,48.2,33.3,30.37,NNW,336,0.0,0.0,56,0.00,,---,0.00,VWS V14.00,2013-01-23 14:03:00,
2013-01-23 09:08:00,48.8,33.4,30.37,NNW,336,0.0,1.0,55,0.00,,---,0.00,VWS V14.00,2013-01-23 14:08:00,
2013-01-23 09:13:00,49.4,33.5,30.37,NNW,336,0.0,1.0,54,0.00,,---,0.00,VWS V14.00,2013-01-23 14:13:00,
2013-01-23 09:18:00,49.9,33.5,30.37,NNW,336,0.0,1.0,53,0.00,,---,0.00,VWS V14.00,2013-01-23 14:18:00,
2013-01-23 09:23:00,50.5,34.0,30.37,NNW,336,0.0,1.0,53,0.00,,---,0.00,VWS V14.00,2013-01-23 14:23:00,
2013-01-23 09:28:00,51.0,34.0,30.37,NNW,336,0.0,1.0,52,0.00,,---,0.00,VWS V14.00,2013-01-23 14:28:00,
2013-01-23 09:30:00,57.5,40.0,30.38,NNW,335,0.0,4.0,52,0.00,,---,0.00,VWS V14.00,2013-01-23 14:30:00,
2013-01-23 09:33:00,51.6,35.0,30.37,NNW,336,0.0,0.0,53,0.00,,---,0.00,VWS V14.00,2013-01-23 14:33:00,
2013-01-23 09:38:00,52.3,35.2,30.37,NNW,336,0.0,0.0,52,0.00,,---,0.00,VWS V14.00,2013-01-23 14:38:00,
2013-01-23 09:43:00,52.8,36.2,30.37,NNW,336,0.0,0.0,53,0.00,,---,0.00,VWS V14.00,2013-01-23 14:43:00,
2013-01-23 09:48:00,53.3,36.6,30.37,NNW,336,0.0,2.0,53,0.00,,---,0.00,VWS V14.00,2013-01-23 14:48:00,
2013-01-23 09:53:00,54.0,37.3,30.37,NNW,336,1.0,2.0,53,0.00,,---,0.00,VWS V14.00,2013-01-23 14:53:00,
2013-01-23 09:58:00,54.6,37.8,30.38,NNW,333,0.0,3.0,53,0.00,,---,0.00,VWS V14.00,2013-01-23 14:58:00,
2013-01-23 10:00:00,60.3,39.5,30.38,NNW,333,0.0,2.0,46,0.00,,---,0.00,VWS V14.00,2013-01-23 15:00:00,
2013-01-23 10:03:00,55.1,37.8,30.38,NNE,29,0.0,0.0,52,0.00,,---,0.00,VWS V14.00,2013-01-23 15:03:00,
2013-01-23 10:08:00,55.7,38.4,30.38,NNW,338,0.0,1.0,52,0.00,,---,0.00,VWS V14.00,2013-01-23 15:08:00,
2013-01-23 10:13:00,56.1,38.7,30.38,North,10,0.0,1.0,52,0.00,,---,0.00,VWS V14.00,2013-01-23 15:13:00,
2013-01-23 10:18:00,56.4,39.0,30.38,WNW,295,0.0,4.0,52,0.00,,---,0.00,VWS V14.00,2013-01-23 15:18:00,
2013-01-23 10:23:00,56.9,39.5,30.38,NW,320,0.0,4.0,52,0.00,,---,0.00,VWS V14.00,2013-01-23 15:23:00,
2013-01-23 10:28:00,57.3,39.8,30.38,NW,313,0.0,4.0,52,0.00,,---,0.00,VWS V14.00,2013-01-23 15:28:00,
2013-01-23 10:30:00,62.7,39.9,30.37,NNW,345,0.0,1.0,43,0.00,,---,0.00,VWS V14.00,2013-01-23 15:30:00,
2013-01-23 10:33:00,57.7,39.7,30.38,NNE,29,0.0,1.0,51,0.00,,---,0.00,VWS V14.00,2013-01-23 15:33:00,
2013-01-23 10:38:00,58.2,40.2,30.38,NNW,330,0.0,2.0,51,0.00,,---,0.00,VWS V14.00,2013-01-23 15:38:00,
2013-01-23 10:43:00,58.6,40.0,30.38,NNW,331,1.0,2.0,50,0.00,,---,0.00,VWS V14.00,2013-01-23 15:43:00,
2013-01-23 10:48:00,59.0,39.9,30.38,NNW,328,0.0,2.0,49,0.00,,---,0.00,VWS V14.00,2013-01-23 15:48:00,
2013-01-23 10:54:00,59.5,39.8,30.38,NNW,333,0.0,2.0,48,0.00,,---,0.00,VWS V14.00,2013-01-23 15:54:00,
2013-01-23 10:59:00,60.1,39.8,30.38,NNW,333,0.0,2.0,47,0.00,,---,0.00,VWS V14.00,2013-01-23 15:59:00,
2013-01-23 11:00:00,64.3,40.1,30.36,NNW,346,0.0,6.0,41,0.00,,---,0.00,VWS V14.00,2013-01-23 16:00:00,
2013-01-23 11:04:00,60.5,39.6,30.38,NNW,333,0.0,1.0,46,0.00,,---,0.00,VWS V14.00,2013-01-23 16:04:00,
2013-01-23 11:09:00,61.2,40.3,30.38,NNW,333,0.0,1.0,46,0.00,,---,0.00,VWS V14.00,2013-01-23 16:09:00,
2013-01-23 11:14:00,61.7,40.7,30.37,NNW,329,0.0,1.0,46,0.00,,---,0.00,VWS V14.00,2013-01-23 16:14:00,
2013-01-23 11:19:00,61.9,39.8,30.37,NNW,329,0.0,1.0,44,0.00,,---,0.00,VWS V14.00,2013-01-23 16:19:00,
2013-01-23 11:24:00,62.2,40.6,30.37,NNW,345,0.0,1.0,45,0.00,,---,0.00,VWS V14.00,2013-01-23 16:24:00,
2013-01-23 11:29:00,62.6,39.8,30.37,NNW,345,0.0,1.0,43,0.00,,---,0.00,VWS V14.00,2013-01-23 16:29:00,
2013-01-23 11:30:00,65.8,38.1,30.34,East,90,1.0,6.0,36,0.00,,---,0.00,VWS V14.00,2013-01-23 16:30:00,
2013-01-23 11:34:00,63.0,40.8,30.37,NNW,345,0.0,1.0,44,0.00,,---,0.00,VWS V14.00,2013-01-23 16:34:00,
2013-01-23 11:39:00,63.6,40.7,30.36,NNW,333,0.0,1.0,43,0.00,,---,0.00,VWS V14.00,2013-01-23 16:39:00,
2013-01-23 11:44:00,64.0,40.5,30.36,North,355,0.0,1.0,42,0.00,,---,0.00,VWS V14.00,2013-01-23 16:44:00,
2013-01-23 11:49:00,64.4,39.6,30.36,NW,323,0.0,4.0,40,0.00,,---,0.00,VWS V14.00,2013-01-23 16:49:00,
2013-01-23 11:54:00,64.3,38.2,30.36,ENE,67,0.0,4.0,38,0.00,,---,0.00,VWS V14.00,2013-01-23 16:54:00,
2013-01-23 11:59:00,64.3,40.1,30.36,NNE,13,0.0,4.0,41,0.00,,---,0.00,VWS V14.00,2013-01-23 16:59:00,
2013-01-23 12:00:00,66.3,38.6,30.33,NNW,346,0.0,6.0,36,0.00,,---,0.00,VWS V14.00,2013-01-23 17:00:00,
2013-01-23 12:04:00,64.6,39.8,30.35,NNW,334,0.0,2.0,40,0.00,,---,0.00,VWS V14.00,2013-01-23 17:04:00,
2013-01-23 12:09:00,64.9,38.0,30.35,NW,314,0.0,6.0,37,0.00,,---,0.00,VWS V14.00,2013-01-23 17:09:00,
2013-01-23 12:14:00,64.9,38.7,30.35,North,349,0.0,6.0,38,0.00,,---,0.00,VWS V14.00,2013-01-23 17:14:00,
2013-01-23 12:19:00,65.1,38.9,30.35,NNW,342,0.0,6.0,38,0.00,,---,0.00,VWS V14.00,2013-01-23 17:19:00,
2013-01-23 12:24:00,65.6,39.3,30.35,NW,315,0.0,6.0,38,0.00,,---,0.00,VWS V14.00,2013-01-23 17:24:00,
2013-01-23 12:29:00,65.8,38.8,30.34,North,355,0.0,6.0,37,0.00,,---,0.00,VWS V14.00,2013-01-23 17:29:00,
2013-01-23 12:30:00,66.6,37.4,30.31,WNW,303,0.0,5.0,34,0.00,,---,0.00,VWS V14.00,2013-01-23 17:30:00,
2013-01-23 12:35:00,65.9,38.2,30.34,ENE,71,0.0,1.0,36,0.00,,---,0.00,VWS V14.00,2013-01-23 17:35:00,
2013-01-23 12:40:00,65.9,39.6,30.34,NE,45,0.0,1.0,38,0.00,,---,0.00,VWS V14.00,2013-01-23 17:40:00,
2013-01-23 12:45:00,66.0,38.3,30.34,North,360,0.0,2.0,36,0.00,,---,0.00,VWS V14.00,2013-01-23 17:45:00,
2013-01-23 12:50:00,65.9,38.9,30.33,NW,321,0.0,5.0,37,0.00,,---,0.00,VWS V14.00,2013-01-23 17:50:00,
2013-01-23 12:55:00,65.9,38.9,30.33,NW,304,0.0,5.0,37,0.00,,---,0.00,VWS V14.00,2013-01-23 17:55:00,
2013-01-23 13:00:00,66.3,39.3,30.33,North,350,0.0,6.0,37,0.00,,---,0.00,VWS V14.00,2013-01-23 18:00:00,
2013-01-23 13:05:00,66.3,38.6,30.32,WNW,296,0.0,0.0,36,0.00,,---,0.00,VWS V14.00,2013-01-23 18:05:00,
2013-01-23 13:10:00,66.8,39.0,30.32,NW,323,0.0,1.0,36,0.00,,---,0.00,VWS V14.00,2013-01-23 18:10:00,
2013-01-23 13:15:00,67.1,38.6,30.32,NW,323,0.0,5.0,35,0.00,,---,0.00,VWS V14.00,2013-01-23 18:15:00,
2013-01-23 13:20:00,67.2,38.7,30.32,North,355,0.0,5.0,35,0.00,,---,0.00,VWS V14.00,2013-01-23 18:20:00,
2013-01-23 13:25:00,66.8,37.6,30.32,NW,311,0.0,5.0,34,0.00,,---,0.00,VWS V14.00,2013-01-23 18:25:00,
2013-01-23 13:30:00,66.7,36.7,30.31,WNW,303,0.0,5.0,33,0.00,,---,0.00,VWS V14.00,2013-01-23 18:30:00,
2013-01-23 13:35:00,66.7,38.2,30.31,WNW,303,0.0,0.0,35,0.00,,---,0.00,VWS V14.00,2013-01-23 18:35:00,
2013-01-23 13:40:00,67.1,37.1,30.31,NE,44,0.0,1.0,33,0.00,,---,0.00,VWS V14.00,2013-01-23 18:40:00,
2013-01-23 13:45:00,67.2,36.4,30.30,NE,44,0.0,1.0,32,0.00,,---,0.00,VWS V14.00,2013-01-23 18:45:00,
2013-01-23 13:50:00,67.2,36.4,30.30,NE,48,0.0,1.0,32,0.00,,---,0.00,VWS V14.00,2013-01-23 18:50:00,
2013-01-23 13:55:00,66.8,36.0,30.30,ESE,107,0.0,3.0,32,0.00,,---,0.00,VWS V14.00,2013-01-23 18:55:00,
2013-01-23 14:00:00,67.0,36.2,30.30,NNW,330,0.0,5.0,32,0.00,,---,0.00,VWS V14.00,2013-01-23 19:00:00,
2013-01-23 14:05:00,67.1,35.5,30.30,North,355,0.0,2.0,31,0.00,,---,0.00,VWS V14.00,2013-01-23 19:05:00,
2013-01-23 14:10:00,67.4,36.5,30.29,NNW,345,0.0,2.0,32,0.00,,---,0.00,VWS V14.00,2013-01-23 19:10:00,
2013-01-23 14:16:00,67.6,36.7,30.29,NW,326,0.0,4.0,32,0.00,,---,0.00,VWS V14.00,2013-01-23 19:16:00,
2013-01-23 14:21:00,67.6,36.7,30.29,NW,314,0.0,4.0,32,0.00,,---,0.00,VWS V14.00,2013-01-23 19:21:00,
2013-01-23 14:26:00,67.5,36.6,30.29,NNE,18,0.0,4.0,32,0.00,,---,0.00,VWS V14.00,2013-01-23 19:26:00,
2013-01-23 14:30:00,67.9,36.2,30.29,NW,310,0.0,4.0,31,0.00,,---,0.00,VWS V14.00,2013-01-23 19:30:00,
2013-01-23 14:31:00,67.6,36.7,30.29,NNE,18,0.0,4.0,32,0.00,,---,0.00,VWS V14.00,2013-01-23 19:31:00,
2013-01-23 14:36:00,67.6,36.7,30.28,NNE,23,0.0,2.0,32,0.00,,---,0.00,VWS V14.00,2013-01-23 19:36:00,
2013-01-23 14:41:00,67.8,36.1,30.28,NE,55,0.0,4.0,31,0.00,,---,0.00,VWS V14.00,2013-01-23 19:41:00,
2013-01-23 14:46:00,67.5,35.8,30.28,NE,44,0.0,5.0,31,0.00,,---,0.00,VWS V14.00,2013-01-23 19:46:00,
2013-01-23 14:51:00,67.4,35.7,30.28,NNW,337,0.0,5.0,31,0.00,,---,0.00,VWS V14.00,2013-01-23 19:51:00,
2013-01-23 14:56:00,67.6,35.1,30.28,North,360,1.0,5.0,30,0.00,,---,0.00,VWS V14.00,2013-01-23 19:56:00,
2013-01-23 15:00:00,67.7,36.0,30.29,NW,319,0.0,3.0,31,0.00,,---,0.00,VWS V14.00,2013-01-23 20:00:00,
2013-01-23 15:01:00,67.7,36.0,30.28,WSW,244,0.0,0.0,31,0.00,,---,0.00,VWS V14.00,2013-01-23 20:01:00,
2013-01-23 15:06:00,68.0,36.3,30.28,NW,319,0.0,1.0,31,0.00,,---,0.00,VWS V14.00,2013-01-23 20:06:00,
2013-01-23 15:11:00,68.0,35.4,30.28,NW,318,0.0,4.0,30,0.00,,---,0.00,VWS V14.00,2013-01-23 20:11:00,
2013-01-23 15:16:00,67.5,35.0,30.29,NW,315,0.0,4.0,30,0.00,,---,0.00,VWS V14.00,2013-01-23 20:16:00,
2013-01-23 15:21:00,67.6,35.9,30.29,WNW,302,0.0,4.0,31,0.00,,---,0.00,VWS V14.00,2013-01-23 20:21:00,
2013-01-23 15:26:00,67.7,35.2,30.29,WNW,302,0.0,4.0,30,0.00,,---,0.00,VWS V14.00,2013-01-23 20:26:00,
2013-01-23 15:30:00,67.2,34.8,30.29,West,276,0.0,3.0,30,0.00,,---,0.00,VWS V14.00,2013-01-23 20:30:00,
2013-01-23 15:31:00,67.9,36.2,30.29,NW,312,0.0,0.0,31,0.00,,---,0.00,VWS V14.00,2013-01-23 20:31:00,
2013-01-23 15:36:00,68.0,35.4,30.29,NW,315,0.0,3.0,30,0.00,,---,0.00,VWS V14.00,2013-01-23 20:36:00,
2013-01-23 15:42:00,68.0,36.3,30.29,NW,319,0.0,3.0,31,0.00,,---,0.00,VWS V14.00,2013-01-23 20:42:00,
2013-01-23 15:47:00,67.8,36.1,30.29,NW,319,0.0,3.0,31,0.00,,---,0.00,VWS V14.00,2013-01-23 20:47:00,
2013-01-23 15:52:00,67.7,35.2,30.29,NW,319,0.0,3.0,30,0.00,,---,0.00,VWS V14.00,2013-01-23 20:52:00,
2013-01-23 15:57:00,67.7,36.0,30.29,NW,319,0.0,3.0,31,0.00,,---,0.00,VWS V14.00,2013-01-23 20:57:00,
2013-01-23 16:00:00,66.3,36.4,30.29,West,277,0.0,1.0,33,0.00,,---,0.00,VWS V14.00,2013-01-23 21:00:00,
2013-01-23 16:02:00,67.7,36.0,30.29,NW,319,0.0,0.0,31,0.00,,---,0.00,VWS V14.00,2013-01-23 21:02:00,
2013-01-23 16:07:00,67.6,35.1,30.29,NW,319,0.0,1.0,30,0.00,,---,0.00,VWS V14.00,2013-01-23 21:07:00,
2013-01-23 16:12:00,67.3,35.7,30.29,NW,315,0.0,3.0,31,0.00,,---,0.00,VWS V14.00,2013-01-23 21:12:00,
2013-01-23 16:17:00,67.4,35.7,30.29,SW,233,0.0,3.0,31,0.00,,---,0.00,VWS V14.00,2013-01-23 21:17:00,
2013-01-23 16:22:00,67.5,36.6,30.29,SW,233,0.0,3.0,32,0.00,,---,0.00,VWS V14.00,2013-01-23 21:22:00,
2013-01-23 16:27:00,67.3,34.8,30.29,West,277,0.0,3.0,30,0.00,,---,0.00,VWS V14.00,2013-01-23 21:27:00,
2013-01-23 16:30:00,64.3,36.1,30.30,West,277,0.0,0.0,35,0.00,,---,0.00,VWS V14.00,2013-01-23 21:30:00,
2013-01-23 16:32:00,67.2,35.6,30.29,West,276,0.0,0.0,31,0.00,,---,0.00,VWS V14.00,2013-01-23 21:32:00,
2013-01-23 16:37:00,67.1,34.7,30.29,West,277,0.0,0.0,30,0.00,,---,0.00,VWS V14.00,2013-01-23 21:37:00,
2013-01-23 16:42:00,66.9,35.3,30.29,West,277,0.0,1.0,31,0.00,,---,0.00,VWS V14.00,2013-01-23 21:42:00,
2013-01-23 16:47:00,66.6,35.0,30.29,West,277,0.0,1.0,31,0.00,,---,0.00,VWS V14.00,2013-01-23 21:47:00,
2013-01-23 16:52:00,66.4,35.7,30.29,West,277,0.0,1.0,32,0.00,,---,0.00,VWS V14.00,2013-01-23 21:52:00,
2013-01-23 16:58:00,66.4,35.7,30.29,West,277,0.0,1.0,32,0.00,,---,0.00,VWS V14.00,2013-01-23 21:58:00,
2013-01-23 17:00:00,61.3,36.8,30.30,West,277,0.0,0.0,40,0.00,,---,0.00,VWS V14.00,2013-01-23 22:00:00,
2013-01-23 17:03:00,66.2,35.5,30.29,West,276,0.0,0.0,32,0.00,,---,0.00,VWS V14.00,2013-01-23 22:03:00,
2013-01-23 17:08:00,66.1,36.9,30.29,West,277,0.0,0.0,34,0.00,,---,0.00,VWS V14.00,2013-01-23 22:08:00,
2013-01-23 17:13:00,66.0,36.8,30.29,West,277,0.0,0.0,34,0.00,,---,0.00,VWS V14.00,2013-01-23 22:13:00,
2013-01-23 17:18:00,65.6,36.5,30.29,West,277,0.0,0.0,34,0.00,,---,0.00,VWS V14.00,2013-01-23 22:18:00,
2013-01-23 17:23:00,65.0,36.7,30.30,West,277,0.0,0.0,35,0.00,,---,0.00,VWS V14.00,2013-01-23 22:23:00,
2013-01-23 17:28:00,64.5,36.3,30.30,West,277,0.0,0.0,35,0.00,,---,0.00,VWS V14.00,2013-01-23 22:28:00,
2013-01-23 17:30:00,56.8,36.3,30.30,West,277,0.0,0.0,46,0.00,,---,0.00,VWS V14.00,2013-01-23 22:30:00,
2013-01-23 17:33:00,64.1,36.6,30.30,West,277,0.0,0.0,36,0.00,,---,0.00,VWS V14.00,2013-01-23 22:33:00,
2013-01-23 17:38:00,63.7,37.0,30.30,West,277,0.0,0.0,37,0.00,,---,0.00,VWS V14.00,2013-01-23 22:38:00,
2013-01-23 17:43:00,63.2,36.5,30.30,West,277,0.0,0.0,37,0.00,,---,0.00,VWS V14.00,2013-01-23 22:43:00,
2013-01-23 17:48:00,62.8,36.8,30.30,West,277,0.0,0.0,38,0.00,,---,0.00,VWS V14.00,2013-01-23 22:48:00,
2013-01-23 17:53:00,62.3,37.0,30.30,West,277,0.0,0.0,39,0.00,,---,0.00,VWS V14.00,2013-01-23 22:53:00,
2013-01-23 17:58:00,61.7,37.2,30.30,West,277,0.0,0.0,40,0.00,,---,0.00,VWS V14.00,2013-01-23 22:58:00,
2013-01-23 18:00:00,54.4,39.5,30.31,West,277,0.0,0.0,57,0.00,,---,0.00,VWS V14.00,2013-01-23 23:00:00,
2013-01-23 18:03:00,61.1,37.2,30.30,West,277,0.0,0.0,41,0.00,,---,0.00,VWS V14.00,2013-01-23 23:03:00,
2013-01-23 18:08:00,60.3,37.1,30.30,West,277,0.0,0.0,42,0.00,,---,0.00,VWS V14.00,2013-01-23 23:08:00,
2013-01-23 18:13:00,59.3,36.8,30.30,West,277,0.0,0.0,43,0.00,,---,0.00,VWS V14.00,2013-01-23 23:13:00,
2013-01-23 18:18:00,58.4,36.6,30.30,West,277,0.0,0.0,44,0.00,,---,0.00,VWS V14.00,2013-01-23 23:18:00,
2013-01-23 18:23:00,57.5,36.9,30.30,West,277,0.0,0.0,46,0.00,,---,0.00,VWS V14.00,2013-01-23 23:23:00,
2013-01-23 18:29:00,57.0,37.0,30.30,West,277,0.0,0.0,47,0.00,,---,0.00,VWS V14.00,2013-01-23 23:29:00,
2013-01-23 18:34:00,56.4,36.4,30.30,West,277,0.0,0.0,47,0.00,,---,0.00,VWS V14.00,2013-01-23 23:34:00,
2013-01-23 18:39:00,55.9,36.5,30.31,West,277,0.0,0.0,48,0.00,,---,0.00,VWS V14.00,2013-01-23 23:39:00,
2013-01-23 18:44:00,55.5,37.2,30.31,West,276,0.0,0.0,50,0.00,,---,0.00,VWS V14.00,2013-01-23 23:44:00,
2013-01-23 18:49:00,55.2,37.9,30.31,West,277,0.0,0.0,52,0.00,,---,0.00,VWS V14.00,2013-01-23 23:49:00,
2013-01-23 18:54:00,54.8,38.0,30.31,West,277,0.0,0.0,53,0.00,,---,0.00,VWS V14.00,2013-01-23 23:54:00,
2013-01-23 18:59:00,54.5,39.6,30.31,West,276,0.0,0.0,57,0.00,,---,0.00,VWS V14.00,2013-01-23 23:59:00,
2013-01-23 19:00:00,52.3,42.8,30.31,West,277,0.0,0.0,70,0.00,,---,0.00,VWS V14.00,2013-01-24 00:00:00,
2013-01-23 19:04:00,54.2,39.8,30.31,West,277,0.0,0.0,58,0.00,,---,0.00,VWS V14.00,2013-01-24 00:04:00,
2013-01-23 19:09:00,53.9,39.9,30.31,West,277,0.0,0.0,59,0.00,,---,0.00,VWS V14.00,2013-01-24 00:09:00,
2013-01-23 19:14:00,53.7,40.6,30.31,West,276,0.0,0.0,61,0.00,,---,0.00,VWS V14.00,2013-01-24 00:14:00,
2013-01-23 19:19:00,53.5,40.8,30.32,West,277,0.0,0.0,62,0.00,,---,0.00,VWS V14.00,2013-01-24 00:19:00,
2013-01-23 19:24:00,53.3,41.8,30.32,West,277,0.0,0.0,65,0.00,,---,0.00,VWS V14.00,2013-01-24 00:24:00,
2013-01-23 19:29:00,53.3,42.2,30.32,West,277,0.0,0.0,66,0.00,,---,0.00,VWS V14.00,2013-01-24 00:29:00,
2013-01-23 19:30:00,50.9,42.6,30.31,West,276,0.0,0.0,73,0.00,,---,0.00,VWS V14.00,2013-01-24 00:30:00,
2013-01-23 19:34:00,53.1,42.1,30.32,West,277,0.0,0.0,66,0.00,,---,0.00,VWS V14.00,2013-01-24 00:34:00,
2013-01-23 19:39:00,53.0,42.7,30.31,West,277,0.0,0.0,68,0.00,,---,0.00,VWS V14.00,2013-01-24 00:39:00,
2013-01-23 19:44:00,53.0,42.7,30.32,West,276,0.0,0.0,68,0.00,,---,0.00,VWS V14.00,2013-01-24 00:44:00,
2013-01-23 19:49:00,52.8,42.9,30.32,West,277,0.0,0.0,69,0.00,,---,0.00,VWS V14.00,2013-01-24 00:49:00,
2013-01-23 19:54:00,52.6,42.7,30.32,West,277,0.0,0.0,69,0.00,,---,0.00,VWS V14.00,2013-01-24 00:54:00,
2013-01-23 19:59:00,52.4,42.9,30.31,West,276,0.0,0.0,70,0.00,,---,0.00,VWS V14.00,2013-01-24 00:59:00,
2013-01-23 20:00:00,50.2,42.2,30.31,West,277,0.0,0.0,74,0.00,,---,0.00,VWS V14.00,2013-01-24 01:00:00,
2013-01-23 20:04:00,52.1,43.0,30.32,West,277,0.0,0.0,71,0.00,,---,0.00,VWS V14.00,2013-01-24 01:04:00,
2013-01-23 20:09:00,51.8,43.1,30.32,West,277,0.0,0.0,72,0.00,,---,0.00,VWS V14.00,2013-01-24 01:09:00,
2013-01-23 20:14:00,51.6,43.2,30.32,West,277,0.0,0.0,73,0.00,,---,0.00,VWS V14.00,2013-01-24 01:14:00,
2013-01-23 20:20:00,51.5,43.5,30.31,West,277,0.0,0.0,74,0.00,,---,0.00,VWS V14.00,2013-01-24 01:20:00,
2013-01-23 20:25:00,51.2,42.9,30.31,West,277,0.0,0.0,73,0.00,,---,0.00,VWS V14.00,2013-01-24 01:25:00,
2013-01-23 20:30:00,51.0,42.7,30.31,West,276,0.0,0.0,73,0.00,,---,0.00,VWS V14.00,2013-01-24 01:30:00,
2013-01-23 20:35:00,50.8,42.5,30.31,West,277,0.0,0.0,73,0.00,,---,0.00,VWS V14.00,2013-01-24 01:35:00,
2013-01-23 20:40:00,50.7,42.4,30.31,West,277,0.0,0.0,73,0.00,,---,0.00,VWS V14.00,2013-01-24 01:40:00,
2013-01-23 20:45:00,50.5,42.5,30.31,West,277,0.0,0.0,74,0.00,,---,0.00,VWS V14.00,2013-01-24 01:45:00,
2013-01-23 20:50:00,50.3,42.3,30.31,West,277,0.0,0.0,74,0.00,,---,0.00,VWS V14.00,2013-01-24 01:50:00,
2013-01-23 20:55:00,50.4,42.4,30.31,West,276,0.0,0.0,74,0.00,,---,0.00,VWS V14.00,2013-01-24 01:55:00,
2013-01-23 21:00:00,50.3,42.3,30.31,West,277,0.0,0.0,74,0.00,,---,0.00,VWS V14.00,2013-01-24 02:00:00,
2013-01-23 21:05:00,50.1,42.5,30.31,West,277,0.0,0.0,75,0.00,,---,0.00,VWS V14.00,2013-01-24 02:05:00,
2013-01-23 21:10:00,49.9,42.7,30.31,West,277,0.0,0.0,76,0.00,,---,0.00,VWS V14.00,2013-01-24 02:10:00,
2013-01-23 21:15:00,49.8,42.5,30.31,West,277,0.0,0.0,76,0.00,,---,0.00,VWS V14.00,2013-01-24 02:15:00,
2013-01-23 21:20:00,49.7,42.5,30.31,West,277,0.0,0.0,76,0.00,,---,0.00,VWS V14.00,2013-01-24 02:20:00,
2013-01-23 21:25:00,49.6,42.7,30.31,West,277,0.0,0.0,77,0.00,,---,0.00,VWS V14.00,2013-01-24 02:25:00,
2013-01-23 21:30:00,49.4,42.5,30.31,West,277,0.0,0.0,77,0.00,,---,0.00,VWS V14.00,2013-01-24 02:30:00,
2013-01-23 21:35:00,49.2,42.3,30.31,West,277,0.0,0.0,77,0.00,,---,0.00,VWS V14.00,2013-01-24 02:35:00,
2013-01-23 21:40:00,49.0,42.5,30.31,West,276,0.0,0.0,78,0.00,,---,0.00,VWS V14.00,2013-01-24 02:40:00,
2013-01-23 21:45:00,48.8,42.3,30.31,West,277,0.0,0.0,78,0.00,,---,0.00,VWS V14.00,2013-01-24 02:45:00,
2013-01-23 21:50:00,48.5,42.0,30.31,West,276,0.0,0.0,78,0.00,,---,0.00,VWS V14.00,2013-01-24 02:50:00,
2013-01-23 21:55:00,48.3,42.1,30.31,West,277,0.0,0.0,79,0.00,,---,0.00,VWS V14.00,2013-01-24 02:55:00,
2013-01-23 22:00:00,46.0,41.4,30.32,West,276,0.0,0.0,84,0.00,,---,0.00,VWS V14.00,2013-01-24 03:00:00,
2013-01-23 22:01:00,48.0,41.8,30.31,West,277,0.0,0.0,79,0.00,,---,0.00,VWS V14.00,2013-01-24 03:01:00,
2013-01-23 22:06:00,47.7,41.8,30.32,West,277,0.0,0.0,80,0.00,,---,0.00,VWS V14.00,2013-01-24 03:06:00,
2013-01-23 22:11:00,47.5,42.0,30.32,West,277,0.0,0.0,81,0.00,,---,0.00,VWS V14.00,2013-01-24 03:11:00,
2013-01-23 22:16:00,47.3,41.8,30.32,West,277,0.0,0.0,81,0.00,,---,0.00,VWS V14.00,2013-01-24 03:16:00,
2013-01-23 22:21:00,47.1,41.9,30.32,West,277,0.0,0.0,82,0.00,,---,0.00,VWS V14.00,2013-01-24 03:21:00,
2013-01-23 22:26:00,46.9,41.7,30.32,West,277,0.0,0.0,82,0.00,,---,0.00,VWS V14.00,2013-01-24 03:26:00,
2013-01-23 22:30:00,45.0,41.1,30.32,West,277,0.0,0.0,86,0.00,,---,0.00,VWS V14.00,2013-01-24 03:30:00,
2013-01-23 22:31:00,46.8,41.9,30.32,West,277,0.0,0.0,83,0.00,,---,0.00,VWS V14.00,2013-01-24 03:31:00,
2013-01-23 22:36:00,46.6,41.7,30.32,West,276,0.0,0.0,83,0.00,,---,0.00,VWS V14.00,2013-01-24 03:36:00,
2013-01-23 22:41:00,46.5,41.9,30.32,West,277,0.0,0.0,84,0.00,,---,0.00,VWS V14.00,2013-01-24 03:41:00,
2013-01-23 22:46:00,46.4,41.8,30.32,West,277,0.0,0.0,84,0.00,,---,0.00,VWS V14.00,2013-01-24 03:46:00,
2013-01-23 22:51:00,46.3,41.7,30.32,West,277,0.0,0.0,84,0.00,,---,0.00,VWS V14.00,2013-01-24 03:51:00,
2013-01-23 22:56:00,46.1,41.5,30.32,West,277,0.0,0.0,84,0.00,,---,0.00,VWS V14.00,2013-01-24 03:56:00,
2013-01-23 23:00:00,44.6,41.0,30.31,West,277,0.0,0.0,87,0.00,,---,0.00,VWS V14.00,2013-01-24 04:00:00,
2013-01-23 23:01:00,45.9,41.3,30.32,West,277,0.0,0.0,84,0.00,,---,0.00,VWS V14.00,2013-01-24 04:01:00,
2013-01-23 23:06:00,45.7,41.2,30.32,West,277,0.0,0.0,84,0.00,,---,0.00,VWS V14.00,2013-01-24 04:06:00,
2013-01-23 23:11:00,45.4,41.2,30.32,West,277,0.0,0.0,85,0.00,,---,0.00,VWS V14.00,2013-01-24 04:11:00,
2013-01-23 23:16:00,45.2,41.0,30.32,West,277,0.0,0.0,85,0.00,,---,0.00,VWS V14.00,2013-01-24 04:16:00,
2013-01-23 23:22:00,45.1,40.9,30.32,West,277,0.0,0.0,85,0.00,,---,0.00,VWS V14.00,2013-01-24 04:22:00,
2013-01-23 23:27:00,45.1,41.2,30.32,West,277,0.0,0.0,86,0.00,,---,0.00,VWS V14.00,2013-01-24 04:27:00,
2013-01-23 23:30:00,44.1,40.5,30.30,West,277,0.0,0.0,87,0.00,,---,0.00,VWS V14.00,2013-01-24 04:30:00,
2013-01-23 23:32:00,45.0,41.1,30.32,West,277,0.0,0.0,86,0.00,,---,0.00,VWS V14.00,2013-01-24 04:32:00,
2013-01-23 23:37:00,45.0,40.8,30.32,West,277,0.0,0.0,85,0.00,,---,0.00,VWS V14.00,2013-01-24 04:37:00,
2013-01-23 23:42:00,44.9,40.7,30.31,West,277,0.0,0.0,85,0.00,,---,0.00,VWS V14.00,2013-01-24 04:42:00,
2013-01-23 23:47:00,44.7,40.8,30.31,West,277,0.0,0.0,86,0.00,,---,0.00,VWS V14.00,2013-01-24 04:47:00,
2013-01-23 23:52:00,44.6,40.7,30.31,West,276,0.0,0.0,86,0.00,,---,0.00,VWS V14.00,2013-01-24 04:52:00,
2013-01-23 23:57:00,44.5,40.6,30.31,West,277,0.0,0.0,86,0.00,,---,0.00,VWS V14.00,2013-01-24 04:57:00,